ロサンゼルス の空港の天気 - METARとTAF

ロサンゼルス国際空港 ( KLAX / LAX ) - アメリカ カリフォルニア州ロサンゼルス
飛行場実況気象(Metar)
観測時間03/04 06:53 PST (03/04 14:53 UTC)
風向・風速不定 2m/s
視程10km以上
天気現象
なし
気温9.4℃
湿度71%
気圧1023hPa
METARKLAX 041453Z VRB04KT 10SM CLR 09/04 A3021 RMK AO2 SLP230 T00940044 53018 $
過去の天気等 Google飛行場航空写真 Wunderground天気予報

過去48時間のMETAR

飛行場予報(TAF)
発表時間: 3/04 06:58 PST (3/04 14:58 UTC)
予報対象時間: 4日7時 PST ~ 5日10時 PST
風向・風速東 3m/s
視程10km以上
全天の4割程度の雲 雲底高度 4570m
4日10時 PST から
風向・風速不定 2m/s
視程10km以上
全天の4割程度の雲 雲底高度 7620m
4日13時 PST から
風向・風速西 5m/s
視程10km以上
全天の4割程度の雲 雲底高度 7620m
4日19時 PST から
風向・風速不定 2m/s
視程10km以上
なし
KLAX 041458Z 0415/0518 08005KT P6SM SCT150
FM041800 VRB03KT P6SM SCT250
FM042100 26010KT P6SM SCT250
FM050300 VRB03KT P6SM SKC